Mc Coy, Virginia
Current Conditions -  °F | °C
As of 2:15 PM on Sunday 21 Dec 2014 (Local Time) from KPSK Reporting Station
Overcast Overcast  
Wind Chill: 44°   Ceiling: 3200
Heat Index: 44°   Visibility: 10mi
Dew Point: 34°   Wind: 0mph
Humidity: 66%   Direction: NA
Pressure: 30.18"   Gusts: NA
Location:  37.2183°N, 80.5985°W
Report Text: KPSK 211915Z AUTO 00000KT 10SM OVC032 07/01 A3018 RMK AO2 T00690010
Loading
Personal Weather Stations






























Interactive Weather Map New forecast layout! Learn more

10-Day Weather Forecast

Advertisements
Track Severe Weather on mobile